sensor_id;sensor_type;location;lat;lon;timestamp;P1;durP1;ratioP1;P2;durP2;ratioP2
34144;SDS011;69555;53.014;8.886;2024-03-06T00:00:03;20.63;;;11.02;;
34144;SDS011;69555;53.014;8.886;2024-03-06T00:02:30;17.88;;;10.65;;
34144;SDS011;69555;53.014;8.886;2024-03-06T00:04:56;22.33;;;11.98;;
34144;SDS011;69555;53.014;8.886;2024-03-06T00:07:23;18.40;;;10.95;;
34144;SDS011;69555;53.014;8.886;2024-03-06T00:09:50;25.45;;;12.50;;
34144;SDS011;69555;53.014;8.886;2024-03-06T00:12:17;23.40;;;11.88;;
34144;SDS011;69555;53.014;8.886;2024-03-06T00:14:45;24.17;;;12.85;;
34144;SDS011;69555;53.014;8.886;2024-03-06T00:17:11;21.23;;;11.10;;
34144;SDS011;69555;53.014;8.886;2024-03-06T00:19:39;25.65;;;12.52;;
34144;SDS011;69555;53.014;8.886;2024-03-06T00:22:05;25.77;;;11.82;;
34144;SDS011;69555;53.014;8.886;2024-03-06T00:24:31;24.70;;;12.40;;
34144;SDS011;69555;53.014;8.886;2024-03-06T00:26:58;21.30;;;12.02;;
34144;SDS011;69555;53.014;8.886;2024-03-06T00:29:25;20.85;;;11.13;;
34144;SDS011;69555;53.014;8.886;2024-03-06T00:31:52;17.15;;;11.07;;
34144;SDS011;69555;53.014;8.886;2024-03-06T00:34:18;22.38;;;10.77;;
34144;SDS011;69555;53.014;8.886;2024-03-06T00:36:45;22.52;;;12.20;;
34144;SDS011;69555;53.014;8.886;2024-03-06T00:39:11;17.27;;;10.15;;
34144;SDS011;69555;53.014;8.886;2024-03-06T00:41:39;19.87;;;11.53;;
34144;SDS011;69555;53.014;8.886;2024-03-06T00:44:06;19.20;;;11.43;;
34144;SDS011;69555;53.014;8.886;2024-03-06T00:46:33;26.45;;;11.77;;
34144;SDS011;69555;53.014;8.886;2024-03-06T00:49:00;22.35;;;12.13;;
34144;SDS011;69555;53.014;8.886;2024-03-06T00:51:27;21.55;;;11.48;;
34144;SDS011;69555;53.014;8.886;2024-03-06T00:53:54;21.50;;;11.70;;
34144;SDS011;69555;53.014;8.886;2024-03-06T00:56:21;21.67;;;11.88;;
34144;SDS011;69555;53.014;8.886;2024-03-06T00:58:47;23.58;;;13.75;;
34144;SDS011;69555;53.014;8.886;2024-03-06T01:01:15;23.55;;;11.60;;
34144;SDS011;69555;53.014;8.886;2024-03-06T01:03:42;21.90;;;11.02;;
34144;SDS011;69555;53.014;8.886;2024-03-06T01:06:09;27.27;;;12.00;;
34144;SDS011;69555;53.014;8.886;2024-03-06T01:08:34;20.35;;;11.20;;
34144;SDS011;69555;53.014;8.886;2024-03-06T01:11:01;21.98;;;13.05;;
34144;SDS011;69555;53.014;8.886;2024-03-06T01:13:27;21.63;;;12.02;;
34144;SDS011;69555;53.014;8.886;2024-03-06T01:15:54;24.90;;;11.98;;
34144;SDS011;69555;53.014;8.886;2024-03-06T01:18:21;24.25;;;11.63;;
34144;SDS011;69555;53.014;8.886;2024-03-06T01:20:48;26.75;;;12.15;;
34144;SDS011;69555;53.014;8.886;2024-03-06T01:23:14;23.23;;;12.30;;
34144;SDS011;69555;53.014;8.886;2024-03-06T01:25:41;23.50;;;12.25;;
34144;SDS011;69555;53.014;8.886;2024-03-06T01:28:08;34.15;;;14.27;;
34144;SDS011;69555;53.014;8.886;2024-03-06T01:30:34;21.30;;;12.52;;
34144;SDS011;69555;53.014;8.886;2024-03-06T01:33:00;25.83;;;13.45;;
34144;SDS011;69555;53.014;8.886;2024-03-06T01:35:26;23.88;;;12.93;;
34144;SDS011;69555;53.014;8.886;2024-03-06T01:37:52;24.38;;;12.52;;
34144;SDS011;69555;53.014;8.886;2024-03-06T01:40:17;24.75;;;12.95;;
34144;SDS011;69555;53.014;8.886;2024-03-06T01:42:45;21.33;;;12.23;;
34144;SDS011;69555;53.014;8.886;2024-03-06T01:45:13;27.63;;;15.02;;
34144;SDS011;69555;53.014;8.886;2024-03-06T01:47:40;31.15;;;13.15;;
34144;SDS011;69555;53.014;8.886;2024-03-06T01:50:07;24.25;;;12.57;;
34144;SDS011;69555;53.014;8.886;2024-03-06T01:52:35;25.70;;;12.77;;
34144;SDS011;69555;53.014;8.886;2024-03-06T01:55:04;26.50;;;12.90;;
34144;SDS011;69555;53.014;8.886;2024-03-06T01:57:32;22.67;;;12.25;;
34144;SDS011;69555;53.014;8.886;2024-03-06T02:00:01;24.77;;;13.32;;
34144;SDS011;69555;53.014;8.886;2024-03-06T02:02:29;22.83;;;12.50;;
34144;SDS011;69555;53.014;8.886;2024-03-06T02:04:56;23.65;;;13.02;;
34144;SDS011;69555;53.014;8.886;2024-03-06T02:07:25;25.63;;;13.15;;
34144;SDS011;69555;53.014;8.886;2024-03-06T02:09:54;24.40;;;11.93;;
34144;SDS011;69555;53.014;8.886;2024-03-06T02:12:21;26.50;;;13.13;;
34144;SDS011;69555;53.014;8.886;2024-03-06T02:14:47;28.77;;;12.95;;
34144;SDS011;69555;53.014;8.886;2024-03-06T02:17:13;24.25;;;12.32;;
34144;SDS011;69555;53.014;8.886;2024-03-06T02:19:39;25.35;;;12.57;;
34144;SDS011;69555;53.014;8.886;2024-03-06T02:22:08;23.63;;;12.23;;
34144;SDS011;69555;53.014;8.886;2024-03-06T02:24:36;26.38;;;13.10;;
34144;SDS011;69555;53.014;8.886;2024-03-06T02:27:08;23.00;;;13.07;;
34144;SDS011;69555;53.014;8.886;2024-03-06T02:29:34;22.73;;;12.65;;
34144;SDS011;69555;53.014;8.886;2024-03-06T02:32:01;23.23;;;12.68;;
34144;SDS011;69555;53.014;8.886;2024-03-06T02:34:30;26.75;;;12.60;;
34144;SDS011;69555;53.014;8.886;2024-03-06T02:36:57;19.42;;;11.38;;
34144;SDS011;69555;53.014;8.886;2024-03-06T02:39:24;27.30;;;13.32;;
34144;SDS011;69555;53.014;8.886;2024-03-06T02:41:49;25.50;;;13.50;;
34144;SDS011;69555;53.014;8.886;2024-03-06T02:44:16;22.15;;;12.25;;
34144;SDS011;69555;53.014;8.886;2024-03-06T02:46:47;22.58;;;12.68;;
34144;SDS011;69555;53.014;8.886;2024-03-06T02:49:15;21.40;;;12.52;;
34144;SDS011;69555;53.014;8.886;2024-03-06T02:51:42;29.73;;;13.50;;
34144;SDS011;69555;53.014;8.886;2024-03-06T02:54:09;28.77;;;13.65;;
34144;SDS011;69555;53.014;8.886;2024-03-06T02:56:36;26.20;;;12.55;;
34144;SDS011;69555;53.014;8.886;2024-03-06T02:59:03;28.10;;;14.15;;
34144;SDS011;69555;53.014;8.886;2024-03-06T03:01:30;24.52;;;13.27;;
34144;SDS011;69555;53.014;8.886;2024-03-06T03:03:57;26.65;;;14.00;;
34144;SDS011;69555;53.014;8.886;2024-03-06T03:06:23;33.88;;;14.00;;
34144;SDS011;69555;53.014;8.886;2024-03-06T03:08:50;29.27;;;13.20;;
34144;SDS011;69555;53.014;8.886;2024-03-06T03:11:17;26.25;;;12.75;;
34144;SDS011;69555;53.014;8.886;2024-03-06T03:13:44;26.83;;;13.30;;
34144;SDS011;69555;53.014;8.886;2024-03-06T03:16:17;25.10;;;13.60;;
34144;SDS011;69555;53.014;8.886;2024-03-06T03:18:45;21.77;;;13.30;;
34144;SDS011;69555;53.014;8.886;2024-03-06T03:21:12;22.80;;;13.15;;
34144;SDS011;69555;53.014;8.886;2024-03-06T03:23:40;27.98;;;13.27;;
34144;SDS011;69555;53.014;8.886;2024-03-06T03:26:09;26.38;;;13.88;;
34144;SDS011;69555;53.014;8.886;2024-03-06T03:28:40;25.48;;;13.57;;
34144;SDS011;69555;53.014;8.886;2024-03-06T03:31:11;25.83;;;14.82;;
34144;SDS011;69555;53.014;8.886;2024-03-06T03:33:40;24.15;;;13.32;;
34144;SDS011;69555;53.014;8.886;2024-03-06T03:36:06;26.42;;;14.43;;
34144;SDS011;69555;53.014;8.886;2024-03-06T03:38:35;25.65;;;14.40;;
34144;SDS011;69555;53.014;8.886;2024-03-06T03:41:12;25.95;;;14.30;;
34144;SDS011;69555;53.014;8.886;2024-03-06T03:43:40;23.88;;;12.70;;
34144;SDS011;69555;53.014;8.886;2024-03-06T03:46:07;28.30;;;13.13;;
34144;SDS011;69555;53.014;8.886;2024-03-06T03:48:32;27.98;;;15.05;;
34144;SDS011;69555;53.014;8.886;2024-03-06T03:51:01;22.77;;;12.63;;
34144;SDS011;69555;53.014;8.886;2024-03-06T03:53:30;30.13;;;15.55;;
34144;SDS011;69555;53.014;8.886;2024-03-06T03:55:56;25.55;;;13.82;;
34144;SDS011;69555;53.014;8.886;2024-03-06T03:58:21;24.88;;;12.93;;
34144;SDS011;69555;53.014;8.886;2024-03-06T04:00:46;30.73;;;14.70;;
34144;SDS011;69555;53.014;8.886;2024-03-06T04:03:12;28.63;;;15.20;;
34144;SDS011;69555;53.014;8.886;2024-03-06T04:05:37;27.25;;;15.30;;
34144;SDS011;69555;53.014;8.886;2024-03-06T04:08:03;32.67;;;15.45;;
34144;SDS011;69555;53.014;8.886;2024-03-06T04:10:31;26.25;;;14.02;;
34144;SDS011;69555;53.014;8.886;2024-03-06T04:12:57;22.10;;;14.00;;
34144;SDS011;69555;53.014;8.886;2024-03-06T04:15:24;25.95;;;14.57;;
34144;SDS011;69555;53.014;8.886;2024-03-06T04:17:50;25.17;;;14.35;;
34144;SDS011;69555;53.014;8.886;2024-03-06T04:20:15;25.80;;;14.45;;
34144;SDS011;69555;53.014;8.886;2024-03-06T04:22:41;24.45;;;14.07;;
34144;SDS011;69555;53.014;8.886;2024-03-06T04:25:07;28.75;;;13.73;;
34144;SDS011;69555;53.014;8.886;2024-03-06T04:27:32;26.27;;;14.48;;
34144;SDS011;69555;53.014;8.886;2024-03-06T04:29:58;22.38;;;12.70;;
34144;SDS011;69555;53.014;8.886;2024-03-06T04:32:24;26.35;;;14.60;;
34144;SDS011;69555;53.014;8.886;2024-03-06T04:34:49;25.85;;;14.90;;
34144;SDS011;69555;53.014;8.886;2024-03-06T04:37:16;25.65;;;14.15;;
34144;SDS011;69555;53.014;8.886;2024-03-06T04:39:42;31.73;;;14.80;;
34144;SDS011;69555;53.014;8.886;2024-03-06T04:42:09;32.70;;;14.73;;
34144;SDS011;69555;53.014;8.886;2024-03-06T04:44:35;28.77;;;15.25;;
34144;SDS011;69555;53.014;8.886;2024-03-06T04:47:03;31.25;;;14.52;;
34144;SDS011;69555;53.014;8.886;2024-03-06T04:49:33;29.10;;;14.70;;
34144;SDS011;69555;53.014;8.886;2024-03-06T04:52:03;30.27;;;14.93;;
34144;SDS011;69555;53.014;8.886;2024-03-06T04:54:32;32.58;;;14.45;;
34144;SDS011;69555;53.014;8.886;2024-03-06T04:56:59;27.27;;;14.43;;
34144;SDS011;69555;53.014;8.886;2024-03-06T04:59:25;32.63;;;15.18;;
34144;SDS011;69555;53.014;8.886;2024-03-06T05:01:52;32.63;;;15.07;;
34144;SDS011;69555;53.014;8.886;2024-03-06T05:04:17;29.90;;;13.52;;
34144;SDS011;69555;53.014;8.886;2024-03-06T05:06:43;33.35;;;15.18;;
34144;SDS011;69555;53.014;8.886;2024-03-06T05:09:08;30.58;;;13.90;;
34144;SDS011;69555;53.014;8.886;2024-03-06T05:11:37;30.05;;;13.80;;
34144;SDS011;69555;53.014;8.886;2024-03-06T05:14:05;23.90;;;12.93;;
34144;SDS011;69555;53.014;8.886;2024-03-06T05:16:32;30.58;;;15.65;;
34144;SDS011;69555;53.014;8.886;2024-03-06T05:18:59;29.02;;;15.07;;
34144;SDS011;69555;53.014;8.886;2024-03-06T05:21:24;33.05;;;14.73;;
34144;SDS011;69555;53.014;8.886;2024-03-06T05:23:49;26.45;;;14.90;;
34144;SDS011;69555;53.014;8.886;2024-03-06T05:26:15;29.30;;;14.30;;
34144;SDS011;69555;53.014;8.886;2024-03-06T05:28:42;26.27;;;14.93;;
34144;SDS011;69555;53.014;8.886;2024-03-06T05:31:17;26.77;;;13.65;;
34144;SDS011;69555;53.014;8.886;2024-03-06T05:33:46;27.92;;;13.98;;
34144;SDS011;69555;53.014;8.886;2024-03-06T05:36:13;32.97;;;14.52;;
34144;SDS011;69555;53.014;8.886;2024-03-06T05:38:39;27.83;;;15.82;;
34144;SDS011;69555;53.014;8.886;2024-03-06T05:41:06;29.52;;;15.50;;
34144;SDS011;69555;53.014;8.886;2024-03-06T05:43:34;27.60;;;15.70;;
34144;SDS011;69555;53.014;8.886;2024-03-06T05:46:00;30.75;;;14.27;;
34144;SDS011;69555;53.014;8.886;2024-03-06T05:48:26;26.88;;;14.73;;
34144;SDS011;69555;53.014;8.886;2024-03-06T05:50:55;29.10;;;13.77;;
34144;SDS011;69555;53.014;8.886;2024-03-06T05:53:20;30.85;;;16.38;;
34144;SDS011;69555;53.014;8.886;2024-03-06T05:55:45;30.48;;;13.93;;
34144;SDS011;69555;53.014;8.886;2024-03-06T05:58:11;29.67;;;14.48;;
34144;SDS011;69555;53.014;8.886;2024-03-06T06:00:36;30.48;;;15.95;;
34144;SDS011;69555;53.014;8.886;2024-03-06T06:03:03;29.40;;;14.93;;
34144;SDS011;69555;53.014;8.886;2024-03-06T06:05:29;28.08;;;15.20;;
34144;SDS011;69555;53.014;8.886;2024-03-06T06:07:55;30.30;;;14.65;;
34144;SDS011;69555;53.014;8.886;2024-03-06T06:10:20;26.58;;;13.60;;
34144;SDS011;69555;53.014;8.886;2024-03-06T06:12:45;27.88;;;15.45;;
34144;SDS011;69555;53.014;8.886;2024-03-06T06:15:11;28.63;;;15.25;;
34144;SDS011;69555;53.014;8.886;2024-03-06T06:17:36;28.77;;;14.20;;
34144;SDS011;69555;53.014;8.886;2024-03-06T06:20:03;25.45;;;14.10;;
34144;SDS011;69555;53.014;8.886;2024-03-06T06:22:36;34.08;;;14.13;;
34144;SDS011;69555;53.014;8.886;2024-03-06T06:25:01;29.10;;;13.85;;
34144;SDS011;69555;53.014;8.886;2024-03-06T06:27:28;33.70;;;15.88;;
34144;SDS011;69555;53.014;8.886;2024-03-06T06:29:53;28.92;;;14.88;;
34144;SDS011;69555;53.014;8.886;2024-03-06T06:32:21;30.88;;;14.52;;
34144;SDS011;69555;53.014;8.886;2024-03-06T06:34:48;26.38;;;14.13;;
34144;SDS011;69555;53.014;8.886;2024-03-06T06:37:13;29.15;;;13.98;;
34144;SDS011;69555;53.014;8.886;2024-03-06T06:39:41;32.28;;;15.20;;
34144;SDS011;69555;53.014;8.886;2024-03-06T06:42:08;36.47;;;15.27;;
34144;SDS011;69555;53.014;8.886;2024-03-06T06:44:37;29.83;;;15.52;;
34144;SDS011;69555;53.014;8.886;2024-03-06T06:47:02;28.55;;;14.10;;
34144;SDS011;69555;53.014;8.886;2024-03-06T06:49:29;36.08;;;14.82;;
34144;SDS011;69555;53.014;8.886;2024-03-06T06:51:56;31.63;;;14.35;;
34144;SDS011;69555;53.014;8.886;2024-03-06T06:54:21;28.85;;;15.55;;
34144;SDS011;69555;53.014;8.886;2024-03-06T06:56:48;33.45;;;14.15;;
34144;SDS011;69555;53.014;8.886;2024-03-06T06:59:16;27.17;;;13.60;;
34144;SDS011;69555;53.014;8.886;2024-03-06T07:01:43;28.25;;;15.43;;
34144;SDS011;69555;53.014;8.886;2024-03-06T07:04:08;28.70;;;15.20;;
34144;SDS011;69555;53.014;8.886;2024-03-06T07:06:35;28.35;;;14.73;;
34144;SDS011;69555;53.014;8.886;2024-03-06T07:09:00;27.50;;;15.35;;
34144;SDS011;69555;53.014;8.886;2024-03-06T07:11:27;29.70;;;14.45;;
34144;SDS011;69555;53.014;8.886;2024-03-06T07:13:52;28.17;;;14.18;;
34144;SDS011;69555;53.014;8.886;2024-03-06T07:16:17;28.38;;;14.88;;
34144;SDS011;69555;53.014;8.886;2024-03-06T07:18:44;25.08;;;14.43;;
34144;SDS011;69555;53.014;8.886;2024-03-06T07:21:11;26.75;;;14.32;;
34144;SDS011;69555;53.014;8.886;2024-03-06T07:23:37;29.70;;;15.82;;
34144;SDS011;69555;53.014;8.886;2024-03-06T07:26:04;28.65;;;15.45;;
34144;SDS011;69555;53.014;8.886;2024-03-06T07:28:30;33.28;;;15.32;;
34144;SDS011;69555;53.014;8.886;2024-03-06T07:30:56;27.85;;;14.32;;
34144;SDS011;69555;53.014;8.886;2024-03-06T07:33:21;32.55;;;14.60;;
34144;SDS011;69555;53.014;8.886;2024-03-06T07:35:47;29.00;;;14.77;;
34144;SDS011;69555;53.014;8.886;2024-03-06T07:38:13;26.50;;;13.57;;
34144;SDS011;69555;53.014;8.886;2024-03-06T07:40:41;29.90;;;14.27;;
34144;SDS011;69555;53.014;8.886;2024-03-06T07:43:06;34.40;;;15.95;;
34144;SDS011;69555;53.014;8.886;2024-03-06T07:45:32;27.98;;;13.98;;
34144;SDS011;69555;53.014;8.886;2024-03-06T07:47:57;24.80;;;14.25;;
34144;SDS011;69555;53.014;8.886;2024-03-06T07:50:23;32.20;;;14.50;;
34144;SDS011;69555;53.014;8.886;2024-03-06T07:52:49;25.42;;;14.15;;
34144;SDS011;69555;53.014;8.886;2024-03-06T07:55:15;30.92;;;14.00;;
34144;SDS011;69555;53.014;8.886;2024-03-06T07:57:40;29.02;;;15.65;;
34144;SDS011;69555;53.014;8.886;2024-03-06T08:00:06;27.60;;;14.45;;
34144;SDS011;69555;53.014;8.886;2024-03-06T08:02:44;28.83;;;13.40;;
34144;SDS011;69555;53.014;8.886;2024-03-06T08:05:14;30.73;;;15.25;;
34144;SDS011;69555;53.014;8.886;2024-03-06T08:07:40;30.38;;;15.13;;
34144;SDS011;69555;53.014;8.886;2024-03-06T08:10:09;30.65;;;14.93;;
34144;SDS011;69555;53.014;8.886;2024-03-06T08:12:38;33.05;;;14.10;;
34144;SDS011;69555;53.014;8.886;2024-03-06T08:15:04;33.03;;;14.15;;
34144;SDS011;69555;53.014;8.886;2024-03-06T08:17:30;32.65;;;15.15;;
34144;SDS011;69555;53.014;8.886;2024-03-06T08:19:55;30.70;;;15.60;;
34144;SDS011;69555;53.014;8.886;2024-03-06T08:22:20;30.05;;;15.38;;
34144;SDS011;69555;53.014;8.886;2024-03-06T08:24:47;25.85;;;15.45;;
34144;SDS011;69555;53.014;8.886;2024-03-06T08:27:14;27.23;;;14.27;;
34144;SDS011;69555;53.014;8.886;2024-03-06T08:29:39;28.10;;;14.35;;
34144;SDS011;69555;53.014;8.886;2024-03-06T08:32:06;28.85;;;15.77;;
34144;SDS011;69555;53.014;8.886;2024-03-06T08:34:33;24.73;;;13.38;;
34144;SDS011;69555;53.014;8.886;2024-03-06T08:36:58;28.25;;;14.57;;
34144;SDS011;69555;53.014;8.886;2024-03-06T08:39:25;28.17;;;14.52;;
34144;SDS011;69555;53.014;8.886;2024-03-06T08:41:51;30.42;;;14.52;;
34144;SDS011;69555;53.014;8.886;2024-03-06T08:44:17;31.75;;;16.17;;
34144;SDS011;69555;53.014;8.886;2024-03-06T08:46:43;23.20;;;13.40;;
34144;SDS011;69555;53.014;8.886;2024-03-06T08:49:08;26.92;;;14.30;;
34144;SDS011;69555;53.014;8.886;2024-03-06T08:51:35;29.77;;;14.43;;
34144;SDS011;69555;53.014;8.886;2024-03-06T08:54:00;26.38;;;14.73;;
34144;SDS011;69555;53.014;8.886;2024-03-06T08:56:28;27.40;;;13.70;;
34144;SDS011;69555;53.014;8.886;2024-03-06T08:58:54;28.58;;;13.95;;
34144;SDS011;69555;53.014;8.886;2024-03-06T09:01:19;33.25;;;13.82;;
34144;SDS011;69555;53.014;8.886;2024-03-06T09:03:44;24.70;;;14.80;;
34144;SDS011;69555;53.014;8.886;2024-03-06T09:06:10;26.42;;;15.75;;
34144;SDS011;69555;53.014;8.886;2024-03-06T09:08:35;25.25;;;14.15;;
34144;SDS011;69555;53.014;8.886;2024-03-06T09:11:01;28.17;;;13.73;;
34144;SDS011;69555;53.014;8.886;2024-03-06T09:13:28;26.80;;;13.75;;
34144;SDS011;69555;53.014;8.886;2024-03-06T09:15:55;27.23;;;14.35;;
34144;SDS011;69555;53.014;8.886;2024-03-06T09:18:20;28.00;;;14.30;;
34144;SDS011;69555;53.014;8.886;2024-03-06T09:20:47;29.67;;;14.65;;
34144;SDS011;69555;53.014;8.886;2024-03-06T09:23:14;35.78;;;16.40;;
34144;SDS011;69555;53.014;8.886;2024-03-06T09:25:40;31.42;;;14.75;;
34144;SDS011;69555;53.014;8.886;2024-03-06T09:28:07;30.33;;;14.93;;
34144;SDS011;69555;53.014;8.886;2024-03-06T09:30:33;28.95;;;13.88;;
34144;SDS011;69555;53.014;8.886;2024-03-06T09:32:59;23.13;;;14.20;;
34144;SDS011;69555;53.014;8.886;2024-03-06T09:35:24;26.92;;;13.55;;
34144;SDS011;69555;53.014;8.886;2024-03-06T09:37:51;28.25;;;15.60;;
34144;SDS011;69555;53.014;8.886;2024-03-06T09:40:23;30.83;;;14.52;;
34144;SDS011;69555;53.014;8.886;2024-03-06T09:42:49;28.05;;;13.68;;
34144;SDS011;69555;53.014;8.886;2024-03-06T09:45:15;27.27;;;14.35;;
34144;SDS011;69555;53.014;8.886;2024-03-06T09:47:42;23.50;;;14.10;;
34144;SDS011;69555;53.014;8.886;2024-03-06T09:50:08;25.23;;;14.75;;
34144;SDS011;69555;53.014;8.886;2024-03-06T09:52:36;23.88;;;14.80;;
34144;SDS011;69555;53.014;8.886;2024-03-06T09:55:03;26.92;;;14.52;;
34144;SDS011;69555;53.014;8.886;2024-03-06T09:57:29;30.25;;;15.02;;
34144;SDS011;69555;53.014;8.886;2024-03-06T09:59:55;30.15;;;16.20;;
34144;SDS011;69555;53.014;8.886;2024-03-06T10:04:59;30.88;;;15.32;;
34144;SDS011;69555;53.014;8.886;2024-03-06T10:07:26;29.50;;;16.05;;
34144;SDS011;69555;53.014;8.886;2024-03-06T10:09:52;30.33;;;16.83;;
34144;SDS011;69555;53.014;8.886;2024-03-06T10:12:18;28.80;;;17.10;;
34144;SDS011;69555;53.014;8.886;2024-03-06T10:14:50;27.58;;;14.32;;
34144;SDS011;69555;53.014;8.886;2024-03-06T10:17:20;29.08;;;14.02;;
34144;SDS011;69555;53.014;8.886;2024-03-06T10:19:48;28.67;;;15.90;;
34144;SDS011;69555;53.014;8.886;2024-03-06T10:22:16;30.30;;;15.13;;
34144;SDS011;69555;53.014;8.886;2024-03-06T10:24:43;28.98;;;15.43;;
34144;SDS011;69555;53.014;8.886;2024-03-06T10:27:13;37.65;;;18.15;;
34144;SDS011;69555;53.014;8.886;2024-03-06T10:29:42;27.40;;;16.13;;
34144;SDS011;69555;53.014;8.886;2024-03-06T10:32:08;30.10;;;14.30;;
34144;SDS011;69555;53.014;8.886;2024-03-06T10:34:34;30.05;;;14.57;;
34144;SDS011;69555;53.014;8.886;2024-03-06T10:37:00;32.95;;;16.23;;
34144;SDS011;69555;53.014;8.886;2024-03-06T10:39:30;23.98;;;14.35;;
34144;SDS011;69555;53.014;8.886;2024-03-06T10:42:00;25.48;;;15.25;;
34144;SDS011;69555;53.014;8.886;2024-03-06T10:44:27;27.83;;;16.02;;
34144;SDS011;69555;53.014;8.886;2024-03-06T10:46:58;29.80;;;15.82;;
34144;SDS011;69555;53.014;8.886;2024-03-06T10:49:29;23.40;;;14.20;;
34144;SDS011;69555;53.014;8.886;2024-03-06T10:52:02;31.48;;;15.55;;
34144;SDS011;69555;53.014;8.886;2024-03-06T10:54:34;24.83;;;15.23;;
34144;SDS011;69555;53.014;8.886;2024-03-06T10:57:01;32.20;;;16.35;;
34144;SDS011;69555;53.014;8.886;2024-03-06T10:59:27;24.17;;;13.88;;
34144;SDS011;69555;53.014;8.886;2024-03-06T11:01:58;25.35;;;14.80;;
34144;SDS011;69555;53.014;8.886;2024-03-06T11:04:27;27.58;;;15.18;;
34144;SDS011;69555;53.014;8.886;2024-03-06T11:06:55;29.65;;;14.68;;
34144;SDS011;69555;53.014;8.886;2024-03-06T11:09:24;29.33;;;16.80;;
34144;SDS011;69555;53.014;8.886;2024-03-06T11:11:53;27.52;;;15.00;;
34144;SDS011;69555;53.014;8.886;2024-03-06T11:14:23;30.83;;;17.17;;
34144;SDS011;69555;53.014;8.886;2024-03-06T11:17:02;24.92;;;14.98;;
34144;SDS011;69555;53.014;8.886;2024-03-06T11:19:30;27.73;;;14.60;;
34144;SDS011;69555;53.014;8.886;2024-03-06T11:21:56;34.40;;;15.60;;
34144;SDS011;69555;53.014;8.886;2024-03-06T11:24:35;23.98;;;14.50;;
34144;SDS011;69555;53.014;8.886;2024-03-06T11:27:02;29.27;;;15.43;;
34144;SDS011;69555;53.014;8.886;2024-03-06T11:32:36;27.33;;;14.80;;
34144;SDS011;69555;53.014;8.886;2024-03-06T11:35:02;24.65;;;15.32;;
34144;SDS011;69555;53.014;8.886;2024-03-06T11:37:36;23.93;;;14.73;;
34144;SDS011;69555;53.014;8.886;2024-03-06T11:40:04;27.77;;;14.68;;
34144;SDS011;69555;53.014;8.886;2024-03-06T11:42:35;27.33;;;14.95;;
34144;SDS011;69555;53.014;8.886;2024-03-06T11:45:15;29.73;;;15.82;;
34144;SDS011;69555;53.014;8.886;2024-03-06T11:50:26;26.92;;;15.80;;
34144;SDS011;69555;53.014;8.886;2024-03-06T11:52:57;26.00;;;13.13;;
34144;SDS011;69555;53.014;8.886;2024-03-06T11:55:23;29.73;;;15.05;;
34144;SDS011;69555;53.014;8.886;2024-03-06T11:57:53;27.90;;;15.18;;
34144;SDS011;69555;53.014;8.886;2024-03-06T12:00:22;24.55;;;13.68;;
34144;SDS011;69555;53.014;8.886;2024-03-06T12:02:49;19.63;;;12.25;;
34144;SDS011;69555;53.014;8.886;2024-03-06T12:05:22;26.90;;;13.65;;
34144;SDS011;69555;53.014;8.886;2024-03-06T12:07:49;24.13;;;13.30;;
34144;SDS011;69555;53.014;8.886;2024-03-06T12:10:18;26.15;;;13.07;;
34144;SDS011;69555;53.014;8.886;2024-03-06T12:12:44;25.13;;;12.77;;
34144;SDS011;69555;53.014;8.886;2024-03-06T12:15:14;20.15;;;11.77;;
34144;SDS011;69555;53.014;8.886;2024-03-06T12:17:43;24.77;;;14.07;;
34144;SDS011;69555;53.014;8.886;2024-03-06T12:20:13;25.88;;;13.00;;
34144;SDS011;69555;53.014;8.886;2024-03-06T12:22:52;22.98;;;14.15;;
34144;SDS011;69555;53.014;8.886;2024-03-06T12:25:22;27.77;;;13.88;;
34144;SDS011;69555;53.014;8.886;2024-03-06T12:27:48;23.02;;;12.77;;
34144;SDS011;69555;53.014;8.886;2024-03-06T12:30:21;33.60;;;14.45;;
34144;SDS011;69555;53.014;8.886;2024-03-06T12:35:26;26.13;;;13.93;;
34144;SDS011;69555;53.014;8.886;2024-03-06T12:37:52;23.40;;;12.63;;
34144;SDS011;69555;53.014;8.886;2024-03-06T12:40:21;29.27;;;14.27;;
34144;SDS011;69555;53.014;8.886;2024-03-06T12:42:48;29.10;;;14.65;;
34144;SDS011;69555;53.014;8.886;2024-03-06T12:45:16;22.52;;;13.30;;
34144;SDS011;69555;53.014;8.886;2024-03-06T12:47:47;30.75;;;14.63;;
34144;SDS011;69555;53.014;8.886;2024-03-06T12:50:14;26.10;;;13.68;;
34144;SDS011;69555;53.014;8.886;2024-03-06T12:52:41;22.83;;;14.07;;
34144;SDS011;69555;53.014;8.886;2024-03-06T12:55:07;30.42;;;15.25;;
34144;SDS011;69555;53.014;8.886;2024-03-06T12:57:34;20.73;;;13.68;;
34144;SDS011;69555;53.014;8.886;2024-03-06T12:59:59;26.02;;;15.73;;
34144;SDS011;69555;53.014;8.886;2024-03-06T13:02:25;27.70;;;14.50;;
34144;SDS011;69555;53.014;8.886;2024-03-06T13:04:51;25.00;;;15.30;;
34144;SDS011;69555;53.014;8.886;2024-03-06T13:07:17;26.65;;;14.68;;
34144;SDS011;69555;53.014;8.886;2024-03-06T13:09:43;36.42;;;15.27;;
34144;SDS011;69555;53.014;8.886;2024-03-06T13:12:10;27.95;;;14.85;;
34144;SDS011;69555;53.014;8.886;2024-03-06T13:14:35;26.70;;;15.95;;
34144;SDS011;69555;53.014;8.886;2024-03-06T13:17:01;25.77;;;15.10;;
34144;SDS011;69555;53.014;8.886;2024-03-06T13:19:27;30.67;;;15.20;;
34144;SDS011;69555;53.014;8.886;2024-03-06T13:21:53;29.33;;;15.35;;
34144;SDS011;69555;53.014;8.886;2024-03-06T13:24:18;28.10;;;15.30;;
34144;SDS011;69555;53.014;8.886;2024-03-06T13:26:45;29.92;;;15.13;;
34144;SDS011;69555;53.014;8.886;2024-03-06T13:29:12;27.33;;;15.25;;
34144;SDS011;69555;53.014;8.886;2024-03-06T13:31:38;25.30;;;14.55;;
34144;SDS011;69555;53.014;8.886;2024-03-06T13:34:04;31.42;;;16.27;;
34144;SDS011;69555;53.014;8.886;2024-03-06T13:36:29;26.90;;;15.52;;
34144;SDS011;69555;53.014;8.886;2024-03-06T13:38:55;26.35;;;15.95;;
34144;SDS011;69555;53.014;8.886;2024-03-06T13:41:21;30.77;;;17.33;;
34144;SDS011;69555;53.014;8.886;2024-03-06T13:43:48;29.10;;;14.50;;
34144;SDS011;69555;53.014;8.886;2024-03-06T13:46:14;28.40;;;16.65;;
34144;SDS011;69555;53.014;8.886;2024-03-06T13:48:40;27.85;;;14.98;;
34144;SDS011;69555;53.014;8.886;2024-03-06T13:51:07;20.70;;;13.05;;
34144;SDS011;69555;53.014;8.886;2024-03-06T13:53:32;26.92;;;15.38;;
34144;SDS011;69555;53.014;8.886;2024-03-06T13:55:59;33.40;;;16.63;;
34144;SDS011;69555;53.014;8.886;2024-03-06T13:58:24;29.33;;;14.32;;
34144;SDS011;69555;53.014;8.886;2024-03-06T14:00:52;27.40;;;16.13;;
34144;SDS011;69555;53.014;8.886;2024-03-06T14:03:17;32.38;;;15.80;;
34144;SDS011;69555;53.014;8.886;2024-03-06T14:05:43;29.30;;;16.38;;
34144;SDS011;69555;53.014;8.886;2024-03-06T14:08:08;29.85;;;15.93;;
34144;SDS011;69555;53.014;8.886;2024-03-06T14:10:36;32.30;;;15.90;;
34144;SDS011;69555;53.014;8.886;2024-03-06T14:13:04;29.63;;;16.05;;
34144;SDS011;69555;53.014;8.886;2024-03-06T14:15:31;29.17;;;16.30;;
34144;SDS011;69555;53.014;8.886;2024-03-06T14:17:57;25.08;;;15.82;;
34144;SDS011;69555;53.014;8.886;2024-03-06T14:20:22;29.95;;;16.75;;
34144;SDS011;69555;53.014;8.886;2024-03-06T14:22:48;27.58;;;15.18;;
34144;SDS011;69555;53.014;8.886;2024-03-06T14:25:14;28.20;;;14.82;;
34144;SDS011;69555;53.014;8.886;2024-03-06T14:27:40;30.58;;;14.88;;
34144;SDS011;69555;53.014;8.886;2024-03-06T14:30:07;31.90;;;15.75;;